sensor_id;sensor_type;location;lat;lon;timestamp;pressure;altitude;pressure_sealevel;temperature;humidity
62524;BME280;53689;56.878;60.672;2022-11-14T00:01:23;94752.00;;;22.45;30.57
62524;BME280;53689;56.878;60.672;2022-11-14T00:04:09;94748.22;;;22.47;30.09
62524;BME280;53689;56.878;60.672;2022-11-14T00:06:56;94756.59;;;22.45;30.38
62524;BME280;53689;56.878;60.672;2022-11-14T00:09:41;94754.72;;;22.45;30.12
62524;BME280;53689;56.878;60.672;2022-11-14T00:12:29;94752.00;;;22.45;30.02
62524;BME280;53689;56.878;60.672;2022-11-14T00:15:15;94752.28;;;22.44;30.14
62524;BME280;53689;56.878;60.672;2022-11-14T00:18:01;94753.91;;;22.45;30.39
62524;BME280;53689;56.878;60.672;2022-11-14T00:20:47;94757.69;;;22.44;29.86
62524;BME280;53689;56.878;60.672;2022-11-14T00:23:35;94766.88;;;22.43;28.54
62524;BME280;53689;56.878;60.672;2022-11-14T00:26:21;94760.66;;;22.42;30.15
62524;BME280;53689;56.878;60.672;2022-11-14T00:29:09;94767.72;;;22.38;28.81
62524;BME280;53689;56.878;60.672;2022-11-14T00:31:56;94766.63;;;22.39;30.28
62524;BME280;53689;56.878;60.672;2022-11-14T00:34:42;94766.88;;;22.43;30.23
62524;BME280;53689;56.878;60.672;2022-11-14T00:37:28;94770.66;;;22.42;30.46
62524;BME280;53689;56.878;60.672;2022-11-14T00:40:15;94765.53;;;22.40;30.84
62524;BME280;53689;56.878;60.672;2022-11-14T00:43:00;94773.34;;;22.42;30.08
62524;BME280;53689;56.878;60.672;2022-11-14T00:45:47;94784.13;;;22.42;30.08
62524;BME280;53689;56.878;60.672;2022-11-14T00:48:33;94783.31;;;22.41;30.81
62524;BME280;53689;56.878;60.672;2022-11-14T00:51:20;94782.03;;;22.39;29.90
62524;BME280;53689;56.878;60.672;2022-11-14T00:54:06;94786.31;;;22.40;30.61
62524;BME280;53689;56.878;60.672;2022-11-14T00:56:52;94781.47;;;22.37;30.09
62524;BME280;53689;56.878;60.672;2022-11-14T00:59:37;94787.41;;;22.39;29.57
62524;BME280;53689;56.878;60.672;2022-11-14T01:02:25;94783.31;;;22.41;30.60
62524;BME280;53689;56.878;60.672;2022-11-14T01:05:11;94785.50;;;22.39;30.92
62524;BME280;53689;56.878;60.672;2022-11-14T01:07:57;94786.31;;;22.40;30.14
62524;BME280;53689;56.878;60.672;2022-11-14T01:10:44;94789.00;;;22.40;30.49
62524;BME280;53689;56.878;60.672;2022-11-14T01:13:32;94789.28;;;22.38;29.87
62524;BME280;53689;56.878;60.672;2022-11-14T01:16:18;94791.16;;;22.38;30.38
62524;BME280;53689;56.878;60.672;2022-11-14T01:19:05;94790.16;;;22.34;30.46
62524;BME280;53689;56.878;60.672;2022-11-14T01:21:51;94784.19;;;22.37;30.32
62524;BME280;53689;56.878;60.672;2022-11-14T01:24:37;94786.88;;;22.37;29.80
62524;BME280;53689;56.878;60.672;2022-11-14T01:27:23;94791.16;;;22.38;30.50
62524;BME280;53689;56.878;60.672;2022-11-14T01:30:10;94782.56;;;22.36;30.63
62524;BME280;53689;56.878;60.672;2022-11-14T01:32:57;94785.25;;;22.36;30.21
62524;BME280;53689;56.878;60.672;2022-11-14T01:35:44;94792.56;;;22.35;30.37
62524;BME280;53689;56.878;60.672;2022-11-14T01:38:31;94791.47;;;22.36;30.47
62524;BME280;53689;56.878;60.672;2022-11-14T01:41:17;94798.75;;;22.36;30.58
62524;BME280;53689;56.878;60.672;2022-11-14T01:44:14;94793.13;;;22.32;29.86
62524;BME280;53689;56.878;60.672;2022-11-14T01:47:00;94791.00;;;22.29;30.33
62524;BME280;53689;56.878;60.672;2022-11-14T01:49:47;94791.25;;;22.33;30.24
62524;BME280;53689;56.878;60.672;2022-11-14T01:52:38;94799.31;;;22.33;30.13
62524;BME280;53689;56.878;60.672;2022-11-14T01:55:25;94800.41;;;22.31;29.85
62524;BME280;53689;56.878;60.672;2022-11-14T01:58:11;94804.72;;;22.33;30.12
62524;BME280;53689;56.878;60.672;2022-11-14T02:00:58;94800.69;;;22.30;30.38
62524;BME280;53689;56.878;60.672;2022-11-14T02:03:46;94807.19;;;22.29;30.41
62524;BME280;53689;56.878;60.672;2022-11-14T02:06:35;94803.38;;;22.30;30.12
62524;BME280;53689;56.878;60.672;2022-11-14T02:09:23;94810.88;;;22.33;29.92
62524;BME280;53689;56.878;60.672;2022-11-14T02:12:12;94809.59;;;22.30;30.03
62524;BME280;53689;56.878;60.672;2022-11-14T02:14:59;94817.94;;;22.29;29.85
62524;BME280;53689;56.878;60.672;2022-11-14T02:17:45;94814.44;;;22.28;29.73
62524;BME280;53689;56.878;60.672;2022-11-14T02:20:36;94824.16;;;22.29;30.19
62524;BME280;53689;56.878;60.672;2022-11-14T02:23:27;94827.63;;;22.30;30.20
62524;BME280;53689;56.878;60.672;2022-11-14T02:26:16;94827.38;;;22.31;30.47
62524;BME280;53689;56.878;60.672;2022-11-14T02:29:03;94826.03;;;22.29;30.46
62524;BME280;53689;56.878;60.672;2022-11-14T02:31:50;94826.84;;;22.29;30.39
62524;BME280;53689;56.878;60.672;2022-11-14T02:34:36;94833.09;;;22.25;30.79
62524;BME280;53689;56.878;60.672;2022-11-14T02:37:24;94838.75;;;22.23;30.29
62524;BME280;53689;56.878;60.672;2022-11-14T02:40:10;94842.13;;;21.80;28.19
62524;BME280;53689;56.878;60.672;2022-11-14T02:42:56;94842.69;;;22.07;30.81
62524;BME280;53689;56.878;60.672;2022-11-14T02:45:42;94842.88;;;22.15;30.16
62524;BME280;53689;56.878;60.672;2022-11-14T02:48:28;94846.09;;;22.17;30.16
62524;BME280;53689;56.878;60.672;2022-11-14T02:51:15;94844.50;;;22.16;30.58
62524;BME280;53689;56.878;60.672;2022-11-14T02:54:02;94846.59;;;22.20;28.75
62524;BME280;53689;56.878;60.672;2022-11-14T02:56:48;94848.31;;;22.10;30.58
62524;BME280;53689;56.878;60.672;2022-11-14T02:59:34;94852.56;;;22.16;30.19
62524;BME280;53689;56.878;60.672;2022-11-14T03:02:20;94862.03;;;22.14;28.35
62524;BME280;53689;56.878;60.672;2022-11-14T03:05:06;94868.00;;;22.11;30.32
62524;BME280;53689;56.878;60.672;2022-11-14T03:07:53;94870.28;;;21.93;27.64
62524;BME280;53689;56.878;60.672;2022-11-14T03:10:41;94871.91;;;21.94;30.96
62524;BME280;53689;56.878;60.672;2022-11-14T03:13:28;94878.47;;;22.12;29.88
62524;BME280;53689;56.878;60.672;2022-11-14T03:16:14;94884.41;;;22.09;29.61
62524;BME280;53689;56.878;60.672;2022-11-14T03:18:59;94886.88;;;22.06;28.83
62524;BME280;53689;56.878;60.672;2022-11-14T03:21:46;94886.59;;;22.07;29.74
62524;BME280;53689;56.878;60.672;2022-11-14T03:24:32;94891.44;;;22.05;29.18
62524;BME280;53689;56.878;60.672;2022-11-14T03:27:19;94897.31;;;22.12;28.12
62524;BME280;53689;56.878;60.672;2022-11-14T03:30:07;94899.75;;;22.14;28.61
62524;BME280;53689;56.878;60.672;2022-11-14T03:32:54;94897.03;;;21.34;27.97
62524;BME280;53689;56.878;60.672;2022-11-14T03:35:41;94910.59;;;21.69;28.83
62524;BME280;53689;56.878;60.672;2022-11-14T03:38:27;94910.94;;;21.97;30.25
62524;BME280;53689;56.878;60.672;2022-11-14T03:41:14;94916.03;;;21.98;28.48
62524;BME280;53689;56.878;60.672;2022-11-14T03:44:01;94919.19;;;22.06;29.88
62524;BME280;53689;56.878;60.672;2022-11-14T03:46:47;94913.78;;;22.11;28.87
62524;BME280;53689;56.878;60.672;2022-11-14T03:49:33;94919.69;;;22.13;30.17
62524;BME280;53689;56.878;60.672;2022-11-14T03:52:18;94923.16;;;22.13;30.37
62524;BME280;53689;56.878;60.672;2022-11-14T03:55:05;94921.28;;;22.14;28.63
62524;BME280;53689;56.878;60.672;2022-11-14T03:57:51;94924.50;;;22.16;30.04
62524;BME280;53689;56.878;60.672;2022-11-14T04:00:39;94933.69;;;22.15;29.25
62524;BME280;53689;56.878;60.672;2022-11-14T04:03:25;94940.16;;;22.14;29.08
62524;BME280;53689;56.878;60.672;2022-11-14T04:06:11;94934.75;;;22.14;30.83
62524;BME280;53689;56.878;60.672;2022-11-14T04:08:57;94941.00;;;22.09;30.67
62524;BME280;53689;56.878;60.672;2022-11-14T04:11:42;94951.50;;;22.11;30.05
62524;BME280;53689;56.878;60.672;2022-11-14T04:14:28;94943.41;;;22.11;30.46
62524;BME280;53689;56.878;60.672;2022-11-14T04:17:16;94944.47;;;22.10;30.29
62524;BME280;53689;56.878;60.672;2022-11-14T04:20:02;94947.72;;;22.12;29.62
62524;BME280;53689;56.878;60.672;2022-11-14T04:22:48;94950.09;;;22.13;30.89
62524;BME280;53689;56.878;60.672;2022-11-14T04:25:36;94953.63;;;22.14;30.73
62524;BME280;53689;56.878;60.672;2022-11-14T04:28:22;94951.19;;;22.12;29.79
62524;BME280;53689;56.878;60.672;2022-11-14T04:31:08;94950.41;;;22.12;31.09
62524;BME280;53689;56.878;60.672;2022-11-14T04:33:55;94957.41;;;22.13;30.79
62524;BME280;53689;56.878;60.672;2022-11-14T04:36:41;94956.84;;;22.16;30.54
62524;BME280;53689;56.878;60.672;2022-11-14T04:39:27;94965.44;;;22.18;30.25
62524;BME280;53689;56.878;60.672;2022-11-14T04:42:14;94961.13;;;22.17;30.28
62524;BME280;53689;56.878;60.672;2022-11-14T04:44:59;94958.50;;;22.12;30.52
62524;BME280;53689;56.878;60.672;2022-11-14T04:47:45;94967.94;;;22.09;29.43
62524;BME280;53689;56.878;60.672;2022-11-14T04:50:33;94969.38;;;21.96;27.96
62524;BME280;53689;56.878;60.672;2022-11-14T04:53:19;94970.97;;;21.97;30.68
62524;BME280;53689;56.878;60.672;2022-11-14T04:56:05;94973.06;;;22.06;30.54
62524;BME280;53689;56.878;60.672;2022-11-14T04:58:51;94982.47;;;21.02;29.37
62524;BME280;53689;56.878;60.672;2022-11-14T05:01:37;94968.53;;;21.56;29.57
62524;BME280;53689;56.878;60.672;2022-11-14T05:04:23;94974.63;;;21.77;29.47
62524;BME280;53689;56.878;60.672;2022-11-14T05:07:10;94982.31;;;21.94;30.02
62524;BME280;53689;56.878;60.672;2022-11-14T05:09:57;94986.53;;;21.55;30.54
62524;BME280;53689;56.878;60.672;2022-11-14T05:12:43;94987.22;;;21.87;30.54
62524;BME280;53689;56.878;60.672;2022-11-14T05:15:29;94990.16;;;21.90;30.61
62524;BME280;53689;56.878;60.672;2022-11-14T05:18:15;94984.75;;;21.90;30.25
62524;BME280;53689;56.878;60.672;2022-11-14T05:21:02;94985.53;;;21.96;30.00
62524;BME280;53689;56.878;60.672;2022-11-14T05:23:49;94989.50;;;22.04;30.23
62524;BME280;53689;56.878;60.672;2022-11-14T05:26:35;95000.84;;;22.06;30.06
62524;BME280;53689;56.878;60.672;2022-11-14T05:29:22;94994.63;;;22.06;29.97
62524;BME280;53689;56.878;60.672;2022-11-14T05:32:08;94999.59;;;21.88;29.50
62524;BME280;53689;56.878;60.672;2022-11-14T05:35:01;95005.63;;;21.69;30.76
62524;BME280;53689;56.878;60.672;2022-11-14T05:37:46;95004.13;;;21.93;29.73
62524;BME280;53689;56.878;60.672;2022-11-14T05:40:34;95012.97;;;22.03;30.55
62524;BME280;53689;56.878;60.672;2022-11-14T05:43:20;95006.75;;;22.03;29.88
62524;BME280;53689;56.878;60.672;2022-11-14T05:46:08;95023.00;;;21.93;30.24
62524;BME280;53689;56.878;60.672;2022-11-14T05:48:55;95021.28;;;22.07;30.01
62524;BME280;53689;56.878;60.672;2022-11-14T05:51:41;95028.97;;;21.08;27.98
62524;BME280;53689;56.878;60.672;2022-11-14T05:54:27;95033.91;;;21.61;30.23
62524;BME280;53689;56.878;60.672;2022-11-14T05:57:14;95032.47;;;21.85;28.60
62524;BME280;53689;56.878;60.672;2022-11-14T06:00:00;95031.84;;;21.98;28.73
62524;BME280;53689;56.878;60.672;2022-11-14T06:02:46;95031.81;;;22.03;27.18
62524;BME280;53689;56.878;60.672;2022-11-14T06:05:34;95042.53;;;22.14;28.41
62524;BME280;53689;56.878;60.672;2022-11-14T06:08:20;95032.78;;;22.18;28.12
62524;BME280;53689;56.878;60.672;2022-11-14T06:11:08;95042.25;;;22.15;28.37
62524;BME280;53689;56.878;60.672;2022-11-14T06:13:56;95046.00;;;22.14;28.21
62524;BME280;53689;56.878;60.672;2022-11-14T06:16:42;95051.72;;;22.08;28.78
62524;BME280;53689;56.878;60.672;2022-11-14T06:19:28;95042.53;;;22.09;29.35
62524;BME280;53689;56.878;60.672;2022-11-14T06:22:14;95052.91;;;21.91;29.07
62524;BME280;53689;56.878;60.672;2022-11-14T06:25:00;95049.31;;;22.06;28.31
62524;BME280;53689;56.878;60.672;2022-11-14T06:27:46;95052.78;;;22.12;28.30
62524;BME280;53689;56.878;60.672;2022-11-14T06:30:34;95052.19;;;22.20;28.39
62524;BME280;53689;56.878;60.672;2022-11-14T06:33:20;95058.09;;;22.22;28.58
62524;BME280;53689;56.878;60.672;2022-11-14T06:36:07;95059.72;;;22.18;28.39
62524;BME280;53689;56.878;60.672;2022-11-14T06:38:53;95064.75;;;21.90;29.58
62524;BME280;53689;56.878;60.672;2022-11-14T06:41:39;95063.69;;;21.86;30.22
62524;BME280;53689;56.878;60.672;2022-11-14T06:44:25;95059.81;;;22.08;29.48
62524;BME280;53689;56.878;60.672;2022-11-14T06:47:16;95065.53;;;21.19;32.52
62524;BME280;53689;56.878;60.672;2022-11-14T06:50:02;95068.06;;;21.76;30.93
62524;BME280;53689;56.878;60.672;2022-11-14T06:52:48;95057.78;;;21.84;30.81
62524;BME280;53689;56.878;60.672;2022-11-14T06:55:37;95070.41;;;21.88;30.22
62524;BME280;53689;56.878;60.672;2022-11-14T06:58:25;95077.63;;;22.03;29.77
62524;BME280;53689;56.878;60.672;2022-11-14T07:01:13;95062.50;;;22.08;29.71
62524;BME280;53689;56.878;60.672;2022-11-14T07:04:01;95074.91;;;22.03;30.30
62524;BME280;53689;56.878;60.672;2022-11-14T07:06:47;95067.09;;;22.07;29.66
62524;BME280;53689;56.878;60.672;2022-11-14T07:09:33;95077.63;;;21.98;29.52
62524;BME280;53689;56.878;60.672;2022-11-14T07:12:19;95076.59;;;21.94;30.04
62524;BME280;53689;56.878;60.672;2022-11-14T07:15:05;95084.22;;;21.76;30.17
62524;BME280;53689;56.878;60.672;2022-11-14T07:17:51;95083.13;;;21.78;30.20
62524;BME280;53689;56.878;60.672;2022-11-14T07:20:39;95085.75;;;21.93;29.73
62524;BME280;53689;56.878;60.672;2022-11-14T07:23:25;95086.06;;;21.81;29.05
62524;BME280;53689;56.878;60.672;2022-11-14T07:26:11;95093.78;;;22.03;29.44
62524;BME280;53689;56.878;60.672;2022-11-14T07:28:57;95102.53;;;21.74;30.49
62524;BME280;53689;56.878;60.672;2022-11-14T07:31:47;95094.25;;;20.15;29.61
62524;BME280;53689;56.878;60.672;2022-11-14T07:34:32;95102.50;;;19.88;27.77
62524;BME280;53689;56.878;60.672;2022-11-14T07:37:20;95101.03;;;21.27;28.51
62524;BME280;53689;56.878;60.672;2022-11-14T07:40:07;95100.69;;;21.54;28.49
62524;BME280;53689;56.878;60.672;2022-11-14T07:42:56;95116.00;;;21.69;27.78
62524;BME280;53689;56.878;60.672;2022-11-14T07:45:43;95119.56;;;21.39;27.65
62524;BME280;53689;56.878;60.672;2022-11-14T07:48:29;95112.56;;;21.43;28.73
62524;BME280;53689;56.878;60.672;2022-11-14T07:51:17;95118.38;;;21.76;27.47
62524;BME280;53689;56.878;60.672;2022-11-14T07:54:05;95118.69;;;21.74;27.27
62524;BME280;53689;56.878;60.672;2022-11-14T07:56:51;95124.00;;;21.90;27.29
62524;BME280;53689;56.878;60.672;2022-11-14T07:59:37;95131.59;;;21.78;27.97
62524;BME280;53689;56.878;60.672;2022-11-14T08:02:23;95123.19;;;21.89;27.59
62524;BME280;53689;56.878;60.672;2022-11-14T08:05:09;95136.34;;;22.01;27.53
62524;BME280;53689;56.878;60.672;2022-11-14T08:07:54;95131.50;;;22.03;27.79
62524;BME280;53689;56.878;60.672;2022-11-14T08:10:42;95133.94;;;22.00;27.73
62524;BME280;53689;56.878;60.672;2022-11-14T08:13:28;95144.13;;;22.03;27.31
62524;BME280;53689;56.878;60.672;2022-11-14T08:16:18;95141.19;;;21.99;27.47
62524;BME280;53689;56.878;60.672;2022-11-14T08:19:04;95150.66;;;21.92;27.98
62524;BME280;53689;56.878;60.672;2022-11-14T08:21:50;95150.34;;;21.98;27.55
62524;BME280;53689;56.878;60.672;2022-11-14T08:24:36;95148.50;;;21.94;27.00
62524;BME280;53689;56.878;60.672;2022-11-14T08:27:23;95156.25;;;22.00;27.19
62524;BME280;53689;56.878;60.672;2022-11-14T08:30:11;95161.13;;;21.98;27.22
62524;BME280;53689;56.878;60.672;2022-11-14T08:33:00;95162.75;;;21.99;27.55
62524;BME280;53689;56.878;60.672;2022-11-14T08:35:47;95167.66;;;21.87;27.16
62524;BME280;53689;56.878;60.672;2022-11-14T08:38:33;95170.34;;;21.87;26.93
62524;BME280;53689;56.878;60.672;2022-11-14T08:41:19;95180.63;;;21.74;27.29
62524;BME280;53689;56.878;60.672;2022-11-14T08:44:07;95181.63;;;21.94;27.40
62524;BME280;53689;56.878;60.672;2022-11-14T08:46:53;95177.28;;;22.03;27.44
62524;BME280;53689;56.878;60.672;2022-11-14T08:49:39;95185.38;;;22.03;26.52
62524;BME280;53689;56.878;60.672;2022-11-14T08:52:26;95191.56;;;21.99;27.91
62524;BME280;53689;56.878;60.672;2022-11-14T08:55:13;95188.41;;;21.86;27.87
62524;BME280;53689;56.878;60.672;2022-11-14T08:57:59;95181.59;;;21.99;27.23
62524;BME280;53689;56.878;60.672;2022-11-14T09:00:47;95200.72;;;22.03;27.26
62524;BME280;53689;56.878;60.672;2022-11-14T09:03:43;95202.91;;;21.90;26.29
62524;BME280;53689;56.878;60.672;2022-11-14T09:06:29;95202.66;;;21.92;27.26
62524;BME280;53689;56.878;60.672;2022-11-14T09:09:15;95200.47;;;21.94;28.01
62524;BME280;53689;56.878;60.672;2022-11-14T09:12:01;95208.84;;;21.87;27.45
62524;BME280;53689;56.878;60.672;2022-11-14T09:14:47;95204.28;;;21.83;27.34
62524;BME280;53689;56.878;60.672;2022-11-14T09:17:32;95205.56;;;22.01;27.40
62524;BME280;53689;56.878;60.672;2022-11-14T09:20:20;95209.59;;;22.03;27.36
62524;BME280;53689;56.878;60.672;2022-11-14T09:23:12;95217.94;;;22.07;26.69
62524;BME280;53689;56.878;60.672;2022-11-14T09:26:02;95216.03;;;22.08;27.39
62524;BME280;53689;56.878;60.672;2022-11-14T09:28:48;95216.09;;;22.02;27.35
62524;BME280;53689;56.878;60.672;2022-11-14T09:31:34;95225.25;;;21.96;26.98
62524;BME280;53689;56.878;60.672;2022-11-14T09:34:20;95221.72;;;22.01;27.40
62524;BME280;53689;56.878;60.672;2022-11-14T09:37:08;95236.03;;;22.01;27.41
62524;BME280;53689;56.878;60.672;2022-11-14T09:39:54;95230.06;;;21.99;27.57
62524;BME280;53689;56.878;60.672;2022-11-14T09:42:58;95230.63;;;21.96;27.57
62524;BME280;53689;56.878;60.672;2022-11-14T09:45:49;95234.94;;;21.97;27.41
62524;BME280;53689;56.878;60.672;2022-11-14T09:48:36;95238.97;;;21.95;27.21
62524;BME280;53689;56.878;60.672;2022-11-14T09:51:24;95236.59;;;21.93;27.43
62524;BME280;53689;56.878;60.672;2022-11-14T09:54:18;95234.66;;;22.04;27.11
62524;BME280;53689;56.878;60.672;2022-11-14T09:57:13;95243.53;;;22.04;27.93
62524;BME280;53689;56.878;60.672;2022-11-14T10:00:00;95248.66;;;22.06;27.50
62524;BME280;53689;56.878;60.672;2022-11-14T10:02:56;95252.41;;;22.05;27.45
62524;BME280;53689;56.878;60.672;2022-11-14T10:05:54;95250.03;;;22.03;27.59
62524;BME280;53689;56.878;60.672;2022-11-14T10:08:48;95251.09;;;22.02;26.90
62524;BME280;53689;56.878;60.672;2022-11-14T10:11:40;95252.16;;;22.07;27.66
62524;BME280;53689;56.878;60.672;2022-11-14T10:14:48;95259.44;;;22.06;27.67
62524;BME280;53689;56.878;60.672;2022-11-14T10:17:52;95263.75;;;22.07;27.35
62524;BME280;53689;56.878;60.672;2022-11-14T10:20:45;95268.84;;;22.09;27.15
62524;BME280;53689;56.878;60.672;2022-11-14T10:23:38;95265.06;;;22.10;27.53
62524;BME280;53689;56.878;60.672;2022-11-14T10:26:31;95272.63;;;22.08;27.18
62524;BME280;53689;56.878;60.672;2022-11-14T10:29:40;95283.41;;;22.13;26.95
62524;BME280;53689;56.878;60.672;2022-11-14T10:32:47;95278.81;;;22.03;27.14
62524;BME280;53689;56.878;60.672;2022-11-14T10:35:38;95284.22;;;22.03;27.24
62524;BME280;53689;56.878;60.672;2022-11-14T10:38:30;95295.81;;;22.03;26.95
62524;BME280;53689;56.878;60.672;2022-11-14T10:41:19;95297.44;;;22.04;27.52
62524;BME280;53689;56.878;60.672;2022-11-14T10:44:31;95294.22;;;21.92;27.25
62524;BME280;53689;56.878;60.672;2022-11-14T10:47:21;95298.53;;;21.78;27.29
62524;BME280;53689;56.878;60.672;2022-11-14T10:50:16;95306.59;;;21.98;26.91
62524;BME280;53689;56.878;60.672;2022-11-14T10:53:12;95314.16;;;22.01;27.40
62524;BME280;53689;56.878;60.672;2022-11-14T10:56:01;95312.25;;;21.97;27.23
62524;BME280;53689;56.878;60.672;2022-11-14T10:58:49;95305.53;;;21.79;28.92
62524;BME280;53689;56.878;60.672;2022-11-14T11:01:37;95318.97;;;21.58;27.30
62524;BME280;53689;56.878;60.672;2022-11-14T11:04:29;95319.88;;;19.77;26.35
62524;BME280;53689;56.878;60.672;2022-11-14T11:07:21;95321.03;;;19.87;24.88
62524;BME280;53689;56.878;60.672;2022-11-14T11:13:04;95332.41;;;21.42;24.95
62524;BME280;53689;56.878;60.672;2022-11-14T11:15:54;95328.38;;;21.34;25.60
62524;BME280;53689;56.878;60.672;2022-11-14T11:18:42;95337.28;;;21.66;25.65
62524;BME280;53689;56.878;60.672;2022-11-14T11:21:47;95333.53;;;21.88;26.81
62524;BME280;53689;56.878;60.672;2022-11-14T11:24:35;95339.47;;;21.74;26.61
62524;BME280;53689;56.878;60.672;2022-11-14T11:27:24;95332.47;;;21.73;26.27
62524;BME280;53689;56.878;60.672;2022-11-14T11:30:18;95344.34;;;21.72;26.10
62524;BME280;53689;56.878;60.672;2022-11-14T11:33:16;95347.56;;;21.85;26.00
62524;BME280;53689;56.878;60.672;2022-11-14T11:36:04;95349.44;;;21.89;27.02
62524;BME280;53689;56.878;60.672;2022-11-14T11:38:52;95344.84;;;21.90;25.76
62524;BME280;53689;56.878;60.672;2022-11-14T11:41:38;95352.69;;;21.86;25.39
62524;BME280;53689;56.878;60.672;2022-11-14T11:44:47;95356.13;;;21.66;26.63
62524;BME280;53689;56.878;60.672;2022-11-14T11:47:35;95363.69;;;21.69;27.04
62524;BME280;53689;56.878;60.672;2022-11-14T11:50:22;95363.16;;;21.78;26.92
62524;BME280;53689;56.878;60.672;2022-11-14T11:53:16;95363.19;;;21.83;26.51
62524;BME280;53689;56.878;60.672;2022-11-14T11:56:08;95366.13;;;21.81;26.96
62524;BME280;53689;56.878;60.672;2022-11-14T11:58:57;95363.69;;;21.80;26.64
62524;BME280;53689;56.878;60.672;2022-11-14T12:01:49;95366.41;;;21.74;27.24
62524;BME280;53689;56.878;60.672;2022-11-14T12:04:36;95374.50;;;21.74;26.26
62524;BME280;53689;56.878;60.672;2022-11-14T12:07:28;95373.69;;;21.79;26.44
62524;BME280;53689;56.878;60.672;2022-11-14T12:10:19;95384.72;;;21.83;25.73
62524;BME280;53689;56.878;60.672;2022-11-14T12:13:45;95387.16;;;21.79;25.58
62524;BME280;53689;56.878;60.672;2022-11-14T12:16:52;95385.25;;;21.80;25.61
62524;BME280;53689;56.878;60.672;2022-11-14T12:19:56;95397.13;;;21.84;25.83
62524;BME280;53689;56.878;60.672;2022-11-14T12:23:06;95399.28;;;21.82;25.57
62524;BME280;53689;56.878;60.672;2022-11-14T12:26:04;95406.78;;;21.80;25.79
62524;BME280;53689;56.878;60.672;2022-11-14T12:29:10;95394.63;;;21.61;27.21
62524;BME280;53689;56.878;60.672;2022-11-14T12:32:12;95411.38;;;21.69;25.79
62524;BME280;53689;56.878;60.672;2022-11-14T12:35:04;95408.13;;;21.72;26.35
62524;BME280;53689;56.878;60.672;2022-11-14T12:37:53;95414.59;;;21.71;25.90
62524;BME280;53689;56.878;60.672;2022-11-14T12:40:48;95415.16;;;21.78;25.65
62524;BME280;53689;56.878;60.672;2022-11-14T12:43:36;95420.78;;;21.76;25.73
62524;BME280;53689;56.878;60.672;2022-11-14T12:46:24;95420.25;;;21.69;25.71
62524;BME280;53689;56.878;60.672;2022-11-14T12:49:35;95422.41;;;21.72;26.00
62524;BME280;53689;56.878;60.672;2022-11-14T12:52:41;95428.84;;;21.71;26.03
62524;BME280;53689;56.878;60.672;2022-11-14T12:55:53;95431.00;;;21.69;27.28
62524;BME280;53689;56.878;60.672;2022-11-14T12:58:53;95432.06;;;21.58;25.79
62524;BME280;53689;56.878;60.672;2022-11-14T13:01:58;95435.81;;;21.57;26.63
62524;BME280;53689;56.878;60.672;2022-11-14T13:05:08;95444.16;;;21.55;25.92
62524;BME280;53689;56.878;60.672;2022-11-14T13:08:09;95444.44;;;21.59;25.56
62524;BME280;53689;56.878;60.672;2022-11-14T13:11:31;95443.38;;;21.65;26.21
62524;BME280;53689;56.878;60.672;2022-11-14T13:14:18;95446.03;;;21.60;25.95
62524;BME280;53689;56.878;60.672;2022-11-14T13:17:23;95440.41;;;21.61;26.34
62524;BME280;53689;56.878;60.672;2022-11-14T13:20:28;95451.44;;;21.60;25.39
62524;BME280;53689;56.878;60.672;2022-11-14T13:23:56;95450.34;;;21.56;25.14
62524;BME280;53689;56.878;60.672;2022-11-14T13:26:47;95451.97;;;21.62;25.73
62524;BME280;53689;56.878;60.672;2022-11-14T13:29:55;95453.63;;;21.63;25.00
62524;BME280;53689;56.878;60.672;2022-11-14T13:33:04;95455.72;;;21.51;25.98
62524;BME280;53689;56.878;60.672;2022-11-14T13:35:55;95454.63;;;21.52;25.68
62524;BME280;53689;56.878;60.672;2022-11-14T13:39:18;95462.75;;;21.57;25.01
62524;BME280;53689;56.878;60.672;2022-11-14T13:42:14;95470.31;;;21.65;24.98
62524;BME280;53689;56.878;60.672;2022-11-14T13:45:40;95468.88;;;20.78;27.29
62524;BME280;53689;56.878;60.672;2022-11-14T13:48:47;95470.16;;;21.24;26.72
62524;BME280;53689;56.878;60.672;2022-11-14T13:51:38;95479.34;;;21.33;25.24
62524;BME280;53689;56.878;60.672;2022-11-14T13:54:29;95469.69;;;21.42;25.33
62524;BME280;53689;56.878;60.672;2022-11-14T13:57:23;95478.88;;;21.46;24.77
62524;BME280;53689;56.878;60.672;2022-11-14T14:00:14;95479.66;;;21.42;25.45
62524;BME280;53689;56.878;60.672;2022-11-14T14:03:18;95493.13;;;21.47;24.92
62524;BME280;53689;56.878;60.672;2022-11-14T14:06:32;95488.47;;;20.73;26.54
62524;BME280;53689;56.878;60.672;2022-11-14T14:09:26;95485.75;;;21.16;28.69
62524;BME280;53689;56.878;60.672;2022-11-14T14:12:27;95502.50;;;21.34;26.67
62524;BME280;53689;56.878;60.672;2022-11-14T14:15:22;95504.97;;;21.46;26.64
62524;BME280;53689;56.878;60.672;2022-11-14T14:18:19;95502.59;;;21.60;26.05
62524;BME280;53689;56.878;60.672;2022-11-14T14:21:17;95512.56;;;21.65;26.51
62524;BME280;53689;56.878;60.672;2022-11-14T14:24:16;95515.78;;;21.67;25.78
62524;BME280;53689;56.878;60.672;2022-11-14T14:27:15;95523.63;;;21.68;25.07
62524;BME280;53689;56.878;60.672;2022-11-14T14:30:08;95524.94;;;21.66;25.38
62524;BME280;53689;56.878;60.672;2022-11-14T14:33:01;95528.97;;;21.58;25.47
62524;BME280;53689;56.878;60.672;2022-11-14T14:35:51;95533.00;;;21.55;25.77
62524;BME280;53689;56.878;60.672;2022-11-14T14:38:40;95529.78;;;21.58;25.39
62524;BME280;53689;56.878;60.672;2022-11-14T14:41:30;95533.84;;;21.66;27.11
62524;BME280;53689;56.878;60.672;2022-11-14T14:44:21;95533.34;;;21.80;27.87
62524;BME280;53689;56.878;60.672;2022-11-14T14:47:15;95529.88;;;21.79;25.91
62524;BME280;53689;56.878;60.672;2022-11-14T14:50:05;95537.63;;;21.70;27.84
62524;BME280;53689;56.878;60.672;2022-11-14T14:53:02;95546.25;;;21.67;26.67